createdAt,value
2023-06-11T00:00:19.510Z,1213.00
2023-06-11T00:01:19.511Z,1200.00
2023-06-11T00:02:19.562Z,1214.00
2023-06-11T00:03:19.649Z,1198.00
2023-06-11T00:04:19.617Z,1199.00
2023-06-11T00:05:21.134Z,1213.00
2023-06-11T00:06:19.655Z,1208.00
2023-06-11T00:07:19.629Z,1192.00
2023-06-11T00:08:19.660Z,1205.00
2023-06-11T00:09:19.667Z,1200.00
2023-06-11T00:10:20.130Z,1200.00
2023-06-11T00:11:19.737Z,1206.00
2023-06-11T00:12:19.715Z,1198.00
2023-06-11T00:13:19.758Z,1208.00
2023-06-11T00:14:19.787Z,1197.00
2023-06-11T00:15:20.143Z,1197.00
2023-06-11T00:16:19.890Z,1197.00
2023-06-11T00:17:19.874Z,1196.00
2023-06-11T00:18:19.855Z,1192.00
2023-06-11T00:19:19.962Z,1201.00
2023-06-11T00:20:19.917Z,1191.00
2023-06-11T00:21:19.889Z,1203.00
2023-06-11T00:22:19.888Z,1189.00
2023-06-11T00:23:19.934Z,1211.00
2023-06-11T00:24:20.131Z,1200.00
2023-06-11T00:25:19.962Z,1204.00
2023-06-11T00:26:20.001Z,1201.00
2023-06-11T00:27:20.024Z,1190.00
2023-06-11T00:28:20.031Z,1197.00
2023-06-11T00:29:20.030Z,1197.00
2023-06-11T00:30:20.089Z,1192.00
2023-06-11T00:31:20.105Z,1187.00
2023-06-11T00:32:20.141Z,1198.00
2023-06-11T00:33:20.116Z,1191.00
2023-06-11T00:34:20.153Z,1194.00
2023-06-11T00:35:20.156Z,1195.00
2023-06-11T00:36:20.227Z,1207.00
2023-06-11T00:37:20.233Z,1198.00
2023-06-11T00:38:20.915Z,1193.00
2023-06-11T00:39:20.296Z,1196.00
2023-06-11T00:40:21.274Z,1197.00
2023-06-11T00:41:20.235Z,1199.00
2023-06-11T00:42:20.213Z,1196.00
2023-06-11T00:43:20.224Z,1206.00
2023-06-11T00:44:20.192Z,1199.00
2023-06-11T00:45:20.197Z,1202.00
2023-06-11T00:46:20.337Z,1199.00
2023-06-11T00:47:20.204Z,1180.00
2023-06-11T00:48:20.200Z,1190.00
2023-06-11T00:49:20.196Z,1197.00
2023-06-11T00:50:20.211Z,1196.00
2023-06-11T00:51:20.138Z,1191.00
2023-06-11T00:52:20.191Z,1188.00
2023-06-11T00:53:20.175Z,1190.00
2023-06-11T00:54:20.171Z,1189.00
2023-06-11T00:55:20.132Z,1193.00
2023-06-11T00:56:20.133Z,1195.00
2023-06-11T00:57:20.170Z,1200.00
2023-06-11T00:58:20.254Z,1185.00
2023-06-11T00:59:20.225Z,1189.00
2023-06-11T01:00:20.228Z,1186.00
2023-06-11T01:01:20.312Z,1187.00
2023-06-11T01:02:20.288Z,1206.00
2023-06-11T01:03:20.331Z,1181.00
2023-06-11T01:04:20.424Z,1194.00
2023-06-11T01:05:20.515Z,1201.00
2023-06-11T01:06:20.422Z,1193.00
2023-06-11T01:07:21.143Z,1202.00
2023-06-11T01:08:20.504Z,1190.00
2023-06-11T01:09:21.172Z,1187.00
2023-06-11T01:10:20.527Z,1196.00
2023-06-11T01:11:20.506Z,1203.00
2023-06-11T01:12:20.557Z,1185.00
2023-06-11T01:13:20.588Z,1208.00
2023-06-11T01:14:20.603Z,1195.00
2023-06-11T01:15:20.653Z,1200.00
2023-06-11T01:16:20.679Z,1195.00
2023-06-11T01:17:20.779Z,1199.00
2023-06-11T01:18:20.812Z,1194.00
2023-06-11T01:19:20.708Z,1181.00
2023-06-11T01:20:20.745Z,1203.00
2023-06-11T01:21:20.764Z,1192.00
2023-06-11T01:22:20.801Z,1199.00
2023-06-11T01:23:20.803Z,1193.00
2023-06-11T01:24:20.858Z,1186.00
2023-06-11T01:25:20.882Z,1193.00
2023-06-11T01:26:20.893Z,1196.00
2023-06-11T01:27:20.944Z,1206.00
2023-06-11T01:28:20.953Z,1203.00
2023-06-11T01:29:20.949Z,1202.00
2023-06-11T01:30:21.133Z,1202.00
2023-06-11T01:31:20.999Z,1198.00
2023-06-11T01:32:21.066Z,1200.00
2023-06-11T01:33:21.082Z,1198.00
2023-06-11T01:34:21.101Z,1196.00
2023-06-11T01:35:21.146Z,1185.00
2023-06-11T01:36:21.146Z,1206.00
2023-06-11T01:37:21.168Z,1201.00
2023-06-11T01:38:21.184Z,1184.00
2023-06-11T01:39:21.226Z,1192.00
2023-06-11T01:40:21.286Z,1186.00
2023-06-11T01:41:21.280Z,1199.00
2023-06-11T01:42:21.313Z,1199.00
2023-06-11T01:43:21.358Z,1193.00
2023-06-11T01:44:21.438Z,1201.00
2023-06-11T01:45:21.435Z,1194.00
2023-06-11T01:46:21.467Z,1198.00
2023-06-11T01:47:21.502Z,1199.00
2023-06-11T01:48:21.545Z,1199.00
2023-06-11T01:49:21.563Z,1191.00
2023-06-11T01:50:21.634Z,1200.00
2023-06-11T01:51:21.665Z,1197.00
2023-06-11T01:52:21.718Z,1195.00
2023-06-11T01:53:21.733Z,1197.00
2023-06-11T01:54:21.766Z,1202.00
2023-06-11T01:55:21.826Z,1202.00
2023-06-11T01:56:21.826Z,1193.00
2023-06-11T01:57:21.889Z,1189.00
2023-06-11T01:58:21.903Z,1201.00
2023-06-11T01:59:21.948Z,1198.00
2023-06-11T02:00:22.162Z,1192.00
2023-06-11T02:01:22.048Z,1207.00
2023-06-11T02:02:22.081Z,1203.00
2023-06-11T02:03:22.218Z,1199.00
2023-06-11T02:04:22.130Z,1200.00
2023-06-11T02:05:22.668Z,1216.00
2023-06-11T02:06:22.205Z,1202.00
2023-06-11T02:07:22.274Z,1201.00
2023-06-11T02:08:22.313Z,1190.00
2023-06-11T02:09:22.319Z,1200.00
2023-06-11T02:10:22.370Z,1211.00
2023-06-11T02:11:22.404Z,1189.00
2023-06-11T02:12:22.438Z,1186.00
2023-06-11T02:13:22.488Z,1192.00
2023-06-11T02:14:22.537Z,1189.00
2023-06-11T02:15:22.579Z,1200.00
2023-06-11T02:16:22.634Z,1193.00
2023-06-11T02:17:22.660Z,1190.00
2023-06-11T02:18:22.662Z,1196.00
2023-06-11T02:19:22.767Z,1188.00
2023-06-11T02:20:22.776Z,1189.00
2023-06-11T02:21:22.805Z,1191.00
2023-06-11T02:22:22.879Z,1200.00
2023-06-11T02:23:22.926Z,1198.00
2023-06-11T02:24:23.069Z,1193.00
2023-06-11T02:25:22.996Z,1221.00
2023-06-11T02:26:23.019Z,1192.00
2023-06-11T02:27:23.071Z,1190.00
2023-06-11T02:28:23.116Z,1186.00
2023-06-11T02:29:23.156Z,1195.00
2023-06-11T02:30:23.212Z,1189.00
2023-06-11T02:31:23.333Z,1185.00
2023-06-11T02:32:23.348Z,1202.00
2023-06-11T02:33:23.298Z,1197.00
2023-06-11T02:34:23.365Z,1191.00
2023-06-11T02:35:23.397Z,1193.00
2023-06-11T02:36:23.448Z,1183.00
2023-06-11T02:37:23.533Z,1194.00
2023-06-11T02:38:23.540Z,1185.00
2023-06-11T02:39:23.569Z,1185.00
2023-06-11T02:40:23.661Z,1190.00
2023-06-11T02:41:23.692Z,1199.00
2023-06-11T02:42:23.716Z,1181.00
2023-06-11T02:43:23.793Z,1201.00
2023-06-11T02:44:23.803Z,1190.00
2023-06-11T02:45:23.902Z,1177.00
2023-06-11T02:46:24.053Z,1186.00
2023-06-11T02:47:23.998Z,1191.00
2023-06-11T02:48:24.013Z,1200.00
2023-06-11T02:49:24.067Z,1185.00
2023-06-11T02:50:24.202Z,1198.00
2023-06-11T02:51:24.143Z,1173.00
2023-06-11T02:52:24.210Z,1191.00
2023-06-11T02:53:24.244Z,1212.00
2023-06-11T02:54:24.299Z,1183.00
2023-06-11T02:55:24.374Z,1179.00
2023-06-11T02:56:24.427Z,1193.00
2023-06-11T02:57:24.452Z,1179.00
2023-06-11T02:58:24.484Z,1194.00
2023-06-11T02:59:25.171Z,1192.00
2023-06-11T03:00:24.629Z,1201.00
2023-06-11T03:01:24.687Z,1190.00
2023-06-11T03:02:25.685Z,1218.00
2023-06-11T03:03:24.723Z,1218.00
2023-06-11T03:04:24.760Z,1203.00
2023-06-11T03:05:24.704Z,1223.00
2023-06-11T03:06:24.663Z,1205.00
2023-06-11T03:07:24.670Z,1203.00
2023-06-11T03:08:24.642Z,1207.00
2023-06-11T03:09:25.271Z,1200.00
2023-06-11T03:10:24.640Z,1194.00
2023-06-11T03:11:24.630Z,1190.00
2023-06-11T03:12:24.627Z,1195.00
2023-06-11T03:13:24.611Z,1206.00
2023-06-11T03:14:24.603Z,1198.00
2023-06-11T03:15:25.183Z,1207.00
2023-06-11T03:16:24.609Z,1200.00
2023-06-11T03:17:25.245Z,1194.00
2023-06-11T03:18:26.247Z,1183.00
2023-06-11T03:19:24.567Z,1196.00
2023-06-11T03:20:24.554Z,1201.00
2023-06-11T03:21:24.572Z,1196.00
2023-06-11T03:22:24.560Z,1213.00
2023-06-11T03:23:24.527Z,1190.00
2023-06-11T03:24:24.617Z,1192.00
2023-06-11T03:25:24.555Z,1188.00
2023-06-11T03:26:24.506Z,1181.00
2023-06-11T03:27:24.541Z,1181.00
2023-06-11T03:28:24.519Z,1178.00
2023-06-11T03:29:24.507Z,1184.00
2023-06-11T03:30:24.483Z,1184.00
2023-06-11T03:31:24.567Z,1211.00
2023-06-11T03:32:24.646Z,1186.00
2023-06-11T03:33:24.626Z,1164.00
2023-06-11T03:34:24.678Z,1168.00
2023-06-11T03:35:24.718Z,1172.00
2023-06-11T03:36:24.856Z,1163.00
2023-06-11T03:37:24.854Z,1201.00
2023-06-11T03:38:24.891Z,1175.00
2023-06-11T03:39:24.983Z,1180.00
2023-06-11T03:40:25.056Z,1171.00
2023-06-11T03:41:25.095Z,1189.00
2023-06-11T03:42:25.142Z,1188.00
2023-06-11T03:43:25.204Z,1184.00
2023-06-11T03:44:25.237Z,1215.00
2023-06-11T03:45:25.299Z,1176.00
2023-06-11T03:46:25.367Z,1186.00
2023-06-11T03:47:25.446Z,1193.00
2023-06-11T03:48:25.465Z,1203.00
2023-06-11T03:49:25.501Z,1216.00
2023-06-11T03:50:25.579Z,1193.00
2023-06-11T03:51:25.635Z,1187.00
2023-06-11T03:52:25.706Z,1192.00
2023-06-11T03:53:25.733Z,1220.00
2023-06-11T03:54:25.795Z,1189.00
2023-06-11T03:55:25.896Z,1192.00
2023-06-11T03:56:25.951Z,1204.00
2023-06-11T03:57:25.984Z,1222.00
2023-06-11T03:58:26.025Z,1218.00
2023-06-11T03:59:26.111Z,1189.00
2023-06-11T04:00:26.142Z,1188.00
2023-06-11T04:01:26.182Z,1220.00
2023-06-11T04:02:26.282Z,1192.00
2023-06-11T04:03:26.334Z,1191.00
2023-06-11T04:04:26.414Z,1187.00
2023-06-11T04:05:26.392Z,1210.00
2023-06-11T04:06:26.425Z,1187.00
2023-06-11T04:07:26.491Z,1213.00
2023-06-11T04:08:26.547Z,1204.00
2023-06-11T04:09:26.599Z,1221.00
2023-06-11T04:10:26.755Z,1219.00
2023-06-11T04:11:26.733Z,1203.00
2023-06-11T04:12:26.803Z,1211.00
2023-06-11T04:13:26.874Z,1203.00
2023-06-11T04:14:26.901Z,1226.00
2023-06-11T04:15:27.009Z,1220.00
2023-06-11T04:16:26.990Z,1214.00
2023-06-11T04:17:27.108Z,1231.00
2023-06-11T04:18:27.100Z,1205.00
2023-06-11T04:19:27.181Z,1222.00
2023-06-11T04:20:27.214Z,1208.00
2023-06-11T04:21:27.285Z,1193.00
2023-06-11T04:22:27.352Z,1191.00
2023-06-11T04:23:27.358Z,1195.00
2023-06-11T04:24:27.535Z,1197.00
2023-06-11T04:25:27.563Z,1197.00
2023-06-11T04:26:27.537Z,1199.00
2023-06-11T04:27:27.662Z,1214.00
2023-06-11T04:28:27.671Z,1197.00
2023-06-11T04:29:27.707Z,1217.00
2023-06-11T04:30:27.772Z,1207.00
2023-06-11T04:31:28.030Z,1197.00
2023-06-11T04:32:28.161Z,1225.00
2023-06-11T04:33:27.926Z,1221.00
2023-06-11T04:34:27.964Z,1220.00
2023-06-11T04:35:28.004Z,1199.00
2023-06-11T04:36:28.113Z,1212.00
2023-06-11T04:37:28.171Z,1212.00
2023-06-11T04:38:28.183Z,1223.00
2023-06-11T04:39:28.276Z,1197.00
2023-06-11T04:40:28.363Z,1197.00
2023-06-11T04:41:28.354Z,1225.00
2023-06-11T04:42:28.446Z,1205.00
2023-06-11T04:43:28.517Z,1177.00
2023-06-11T04:44:28.526Z,1197.00
2023-06-11T04:45:28.587Z,1185.00
2023-06-11T04:46:28.671Z,1186.00
2023-06-11T04:47:28.763Z,1184.00
2023-06-11T04:48:28.764Z,1204.00
2023-06-11T04:49:28.828Z,1171.00
2023-06-11T04:50:28.873Z,1203.00
2023-06-11T04:51:28.938Z,1191.00
2023-06-11T04:52:28.991Z,1194.00
2023-06-11T04:53:29.056Z,1207.00
2023-06-11T04:54:29.082Z,1212.00
2023-06-11T04:55:29.169Z,1206.00
2023-06-11T04:56:29.235Z,1189.00
2023-06-11T04:57:29.289Z,1192.00
2023-06-11T04:58:29.338Z,1191.00
2023-06-11T04:59:29.410Z,1200.00
2023-06-11T05:00:29.452Z,1220.00
2023-06-11T05:01:29.582Z,1217.00
2023-06-11T05:02:29.640Z,1215.00
2023-06-11T05:03:29.635Z,1224.00
2023-06-11T05:04:29.686Z,1213.00
2023-06-11T05:05:29.803Z,1200.00
2023-06-11T05:06:29.811Z,1191.00
2023-06-11T05:07:29.891Z,1226.00
2023-06-11T05:08:29.920Z,1200.00
2023-06-11T05:09:29.970Z,1197.00
2023-06-11T05:10:30.034Z,1210.00
2023-06-11T05:11:30.075Z,1221.00
2023-06-11T05:12:30.161Z,1211.00
2023-06-11T05:13:30.196Z,1205.00
2023-06-11T05:14:30.271Z,1222.00
2023-06-11T05:15:30.307Z,1234.00
2023-06-11T05:16:30.431Z,1214.00
2023-06-11T05:17:30.450Z,1195.00
2023-06-11T05:18:30.465Z,1209.00
2023-06-11T05:19:30.501Z,1229.00
2023-06-11T05:20:30.745Z,1250.00
2023-06-11T05:21:30.666Z,1228.00
2023-06-11T05:22:30.727Z,1226.00
2023-06-11T05:23:30.823Z,1211.00
2023-06-11T05:24:30.868Z,1219.00
2023-06-11T05:25:30.852Z,1232.00
2023-06-11T05:26:30.936Z,1205.00
2023-06-11T05:27:30.987Z,1225.00
2023-06-11T05:28:31.008Z,1227.00
2023-06-11T05:29:31.110Z,1190.00
2023-06-11T05:30:31.132Z,1209.00
2023-06-11T05:31:31.262Z,1229.00
2023-06-11T05:32:31.261Z,1218.00
2023-06-11T05:33:31.341Z,1259.00
2023-06-11T05:34:31.362Z,1212.00
2023-06-11T05:35:31.430Z,1243.00
2023-06-11T05:36:31.451Z,1243.00
2023-06-11T05:37:31.523Z,1212.00
2023-06-11T05:38:31.575Z,1258.00
2023-06-11T05:39:31.601Z,1205.00
2023-06-11T05:40:31.690Z,1240.00
2023-06-11T05:41:31.709Z,1241.00
2023-06-11T05:42:31.785Z,1217.00
2023-06-11T05:43:31.834Z,1237.00
2023-06-11T05:44:31.919Z,1232.00
2023-06-11T05:45:31.995Z,1215.00
2023-06-11T05:46:32.051Z,1251.00
2023-06-11T05:47:32.118Z,1242.00
2023-06-11T05:48:32.100Z,1221.00
2023-06-11T05:49:32.126Z,1240.00
2023-06-11T05:50:32.176Z,1223.00
2023-06-11T05:51:32.207Z,1238.00
2023-06-11T05:52:32.244Z,1239.00
2023-06-11T05:53:32.300Z,1231.00
2023-06-11T05:54:32.298Z,1225.00
2023-06-11T05:55:32.365Z,1222.00
2023-06-11T05:56:32.393Z,1230.00
2023-06-11T05:57:32.453Z,1234.00
2023-06-11T05:58:32.498Z,1236.00
2023-06-11T05:59:32.545Z,1218.00
2023-06-11T06:00:32.614Z,1226.00
2023-06-11T06:01:32.594Z,1215.00
2023-06-11T06:02:32.748Z,1230.00
2023-06-11T06:03:32.807Z,1240.00
2023-06-11T06:04:32.769Z,1232.00
2023-06-11T06:05:32.746Z,1230.00
2023-06-11T06:06:32.774Z,1243.00
2023-06-11T06:07:32.857Z,1272.00
2023-06-11T06:08:32.856Z,1223.00
2023-06-11T06:09:32.914Z,1228.00
2023-06-11T06:10:32.959Z,1238.00
2023-06-11T06:11:33.008Z,1240.00
2023-06-11T06:12:33.032Z,1244.00
2023-06-11T06:13:33.093Z,1246.00
2023-06-11T06:14:33.129Z,1217.00
2023-06-11T06:15:33.183Z,1221.00
2023-06-11T06:16:33.352Z,1217.00
2023-06-11T06:17:33.303Z,1255.00
2023-06-11T06:18:33.296Z,1231.00
2023-06-11T06:19:33.364Z,1222.00
2023-06-11T06:20:33.400Z,1235.00
2023-06-11T06:21:33.403Z,1247.00
2023-06-11T06:22:33.455Z,1218.00
2023-06-11T06:23:33.513Z,1237.00
2023-06-11T06:24:33.536Z,1221.00
2023-06-11T06:25:33.559Z,1222.00
2023-06-11T06:26:33.618Z,1231.00
2023-06-11T06:27:33.616Z,1245.00
2023-06-11T06:28:33.653Z,1238.00
2023-06-11T06:29:33.656Z,1254.00
2023-06-11T06:30:33.724Z,1238.00
2023-06-11T06:31:33.756Z,1241.00
2023-06-11T06:32:33.882Z,1246.00
2023-06-11T06:33:33.803Z,1248.00
2023-06-11T06:34:33.820Z,1247.00
2023-06-11T06:35:33.911Z,1240.00
2023-06-11T06:36:33.890Z,1250.00
2023-06-11T06:37:33.897Z,1234.00
2023-06-11T06:38:33.939Z,1239.00
2023-06-11T06:39:35.365Z,1246.00
2023-06-11T06:40:34.025Z,1269.00
2023-06-11T06:41:33.988Z,1245.00
2023-06-11T06:42:34.044Z,1228.00
2023-06-11T06:43:34.049Z,1243.00
2023-06-11T06:44:34.062Z,1249.00
2023-06-11T06:45:34.090Z,1252.00
2023-06-11T06:46:34.106Z,1243.00
2023-06-11T06:47:34.221Z,1242.00
2023-06-11T06:48:34.210Z,1247.00
2023-06-11T06:49:34.203Z,1255.00
2023-06-11T06:50:34.320Z,1245.00
2023-06-11T06:51:34.264Z,1242.00
2023-06-11T06:52:34.259Z,1242.00
2023-06-11T06:53:34.251Z,1245.00
2023-06-11T06:54:34.299Z,1245.00
2023-06-11T06:55:34.331Z,1246.00
2023-06-11T06:56:34.360Z,1246.00
2023-06-11T06:57:34.401Z,1244.00
2023-06-11T06:58:34.406Z,1256.00
2023-06-11T06:59:34.407Z,1248.00
2023-06-11T07:00:34.418Z,1244.00
2023-06-11T07:01:34.510Z,1252.00
2023-06-11T07:02:34.483Z,1256.00
2023-06-11T07:03:34.471Z,1249.00
2023-06-11T07:04:34.458Z,1254.00
2023-06-11T07:05:34.530Z,1251.00
2023-06-11T07:06:34.515Z,1251.00
2023-06-11T07:07:34.527Z,1248.00
2023-06-11T07:08:34.562Z,1248.00
2023-06-11T07:09:34.570Z,1258.00
2023-06-11T07:10:34.571Z,1244.00
2023-06-11T07:11:34.623Z,1254.00
2023-06-11T07:12:34.617Z,1247.00
2023-06-11T07:13:34.605Z,1260.00
2023-06-11T07:14:34.613Z,1255.00
2023-06-11T07:15:34.674Z,1263.00
2023-06-11T07:16:34.765Z,1253.00
2023-06-11T07:17:34.722Z,1254.00
2023-06-11T07:18:34.763Z,1240.00
2023-06-11T07:19:34.758Z,1250.00
2023-06-11T07:20:34.811Z,1241.00
2023-06-11T07:21:34.775Z,1259.00
2023-06-11T07:22:34.843Z,1254.00
2023-06-11T07:23:34.868Z,1240.00
2023-06-11T07:24:34.852Z,1248.00
2023-06-11T07:25:34.895Z,1258.00
2023-06-11T07:26:34.894Z,1251.00
2023-06-11T07:27:34.866Z,1247.00
2023-06-11T07:28:34.927Z,1273.00
2023-06-11T07:29:34.930Z,1250.00
2023-06-11T07:30:34.957Z,1254.00
2023-06-11T07:31:35.032Z,1250.00
2023-06-11T07:32:34.991Z,1264.00
2023-06-11T07:33:35.019Z,1239.00
2023-06-11T07:34:35.047Z,1232.00
2023-06-11T07:35:35.081Z,1248.00
2023-06-11T07:36:35.057Z,1246.00
2023-06-11T07:37:35.081Z,1250.00
2023-06-11T07:38:35.107Z,1247.00
2023-06-11T07:39:35.165Z,1256.00
2023-06-11T07:40:35.220Z,1254.00
2023-06-11T07:41:35.207Z,1245.00
2023-06-11T07:42:35.195Z,1252.00
2023-06-11T07:43:35.225Z,1257.00
2023-06-11T07:44:35.249Z,1257.00
2023-06-11T07:45:35.305Z,1263.00
2023-06-11T07:46:35.336Z,1267.00
2023-06-11T07:47:35.283Z,1256.00
2023-06-11T07:48:35.291Z,1269.00
2023-06-11T07:49:35.340Z,1255.00
2023-06-11T07:50:35.344Z,1266.00
2023-06-11T07:51:35.402Z,1264.00
2023-06-11T07:52:35.408Z,1270.00
2023-06-11T07:53:35.414Z,1262.00
2023-06-11T07:54:35.438Z,1270.00
2023-06-11T07:55:35.437Z,1269.00
2023-06-11T07:56:35.485Z,1256.00
2023-06-11T07:57:35.499Z,1254.00
2023-06-11T07:58:35.563Z,1276.00
2023-06-11T07:59:35.546Z,1257.00
2023-06-11T08:00:35.546Z,1270.00
2023-06-11T08:01:35.626Z,1276.00
2023-06-11T08:02:35.733Z,1279.00
2023-06-11T08:03:35.762Z,1277.00
2023-06-11T08:04:35.582Z,1275.00
2023-06-11T08:05:35.668Z,1285.00
2023-06-11T08:06:35.630Z,1292.00
2023-06-11T08:07:35.612Z,1294.00
2023-06-11T08:08:35.608Z,1287.00
2023-06-11T08:09:35.629Z,1279.00
2023-06-11T08:10:35.641Z,1289.00
2023-06-11T08:11:35.676Z,1275.00
2023-06-11T08:12:35.660Z,1296.00
2023-06-11T08:13:35.661Z,1286.00
2023-06-11T08:14:35.693Z,1276.00
2023-06-11T08:15:35.675Z,1291.00
2023-06-11T08:16:35.722Z,1286.00
2023-06-11T08:17:35.766Z,1286.00
2023-06-11T08:18:35.703Z,1291.00
2023-06-11T08:19:35.715Z,1282.00
2023-06-11T08:20:35.712Z,1287.00
2023-06-11T08:21:35.715Z,1291.00
2023-06-11T08:22:35.753Z,1276.00
2023-06-11T08:23:35.775Z,1283.00
2023-06-11T08:24:35.775Z,1276.00
2023-06-11T08:25:35.798Z,1278.00
2023-06-11T08:26:35.738Z,1284.00
2023-06-11T08:27:35.765Z,1272.00
2023-06-11T08:28:35.757Z,1275.00
2023-06-11T08:29:35.739Z,1279.00
2023-06-11T08:30:35.772Z,1270.00
2023-06-11T08:31:35.806Z,1281.00
2023-06-11T08:32:35.899Z,1287.00
2023-06-11T08:33:35.803Z,1298.00
2023-06-11T08:34:35.876Z,1284.00
2023-06-11T08:35:35.807Z,1296.00
2023-06-11T08:36:35.816Z,1275.00
2023-06-11T08:37:35.797Z,1296.00
2023-06-11T08:38:38.679Z,1288.00
2023-06-11T08:39:35.810Z,1301.00
2023-06-11T08:40:35.828Z,1292.00
2023-06-11T08:41:35.801Z,1292.00
2023-06-11T08:42:35.775Z,1279.00
2023-06-11T08:43:35.784Z,1296.00
2023-06-11T08:44:35.782Z,1286.00
2023-06-11T08:45:35.766Z,1305.00
2023-06-11T08:46:35.797Z,1287.00
2023-06-11T08:47:35.858Z,1289.00
2023-06-11T08:48:35.741Z,1292.00
2023-06-11T08:49:38.669Z,1284.00
2023-06-11T08:50:35.758Z,1285.00
2023-06-11T08:51:35.708Z,1288.00
2023-06-11T08:52:35.759Z,1291.00
2023-06-11T08:53:35.716Z,1299.00
2023-06-11T08:54:35.677Z,1300.00
2023-06-11T08:55:35.681Z,1305.00
2023-06-11T08:56:35.694Z,1306.00
2023-06-11T08:57:35.674Z,1308.00
2023-06-11T08:58:35.658Z,1316.00
2023-06-11T08:59:35.707Z,1304.00
2023-06-11T09:00:35.652Z,1311.00
2023-06-11T09:01:35.693Z,1320.00
2023-06-11T09:02:35.641Z,1309.00
2023-06-11T09:03:35.714Z,1319.00
2023-06-11T09:04:35.595Z,1319.00
2023-06-11T09:05:35.620Z,1320.00
2023-06-11T09:06:35.683Z,1315.00
2023-06-11T09:07:37.430Z,1322.00
2023-06-11T09:08:35.567Z,1323.00
2023-06-11T09:09:35.601Z,1319.00
2023-06-11T09:10:35.582Z,1316.00
2023-06-11T09:11:35.600Z,1319.00
2023-06-11T09:12:35.614Z,1322.00
2023-06-11T09:13:35.560Z,1309.00
2023-06-11T09:14:35.539Z,1311.00
2023-06-11T09:15:35.573Z,1308.00
2023-06-11T09:16:35.601Z,1312.00
2023-06-11T09:17:35.567Z,1317.00
2023-06-11T09:18:35.545Z,1318.00
2023-06-11T09:19:35.526Z,1317.00
2023-06-11T09:20:35.536Z,1317.00
2023-06-11T09:21:35.488Z,1309.00
2023-06-11T09:22:35.503Z,1319.00
2023-06-11T09:23:35.569Z,1323.00
2023-06-11T09:24:35.481Z,1315.00
2023-06-11T09:25:35.518Z,1314.00
2023-06-11T09:26:35.498Z,1318.00
2023-06-11T09:27:35.473Z,1309.00
2023-06-11T09:28:35.428Z,1319.00
2023-06-11T09:29:35.451Z,1309.00
2023-06-11T09:30:35.484Z,1312.00
2023-06-11T09:31:35.430Z,1309.00
2023-06-11T09:32:35.473Z,1315.00
2023-06-11T09:33:35.485Z,1315.00
2023-06-11T09:34:35.428Z,1304.00
2023-06-11T09:35:35.415Z,1309.00
2023-06-11T09:36:35.403Z,1313.00
2023-06-11T09:37:35.406Z,1305.00
2023-06-11T09:38:35.432Z,1307.00
2023-06-11T09:39:35.434Z,1308.00
2023-06-11T09:40:35.460Z,1316.00
2023-06-11T09:41:35.395Z,1319.00
2023-06-11T09:42:35.402Z,1321.00
2023-06-11T09:43:35.465Z,1299.00
2023-06-11T09:44:35.451Z,1309.00
2023-06-11T09:45:35.519Z,1323.00
2023-06-11T09:46:35.512Z,1308.00
2023-06-11T09:47:35.471Z,1298.00
2023-06-11T09:48:35.419Z,1294.00
2023-06-11T09:49:35.425Z,1297.00
2023-06-11T09:50:35.416Z,1294.00
2023-06-11T09:51:35.415Z,1293.00
2023-06-11T09:52:35.418Z,1290.00
2023-06-11T09:53:36.244Z,1298.00
2023-06-11T09:54:35.436Z,1293.00
2023-06-11T09:55:35.443Z,1293.00
2023-06-11T09:56:35.414Z,1289.00
2023-06-11T09:57:35.434Z,1295.00
2023-06-11T09:58:35.415Z,1286.00
2023-06-11T09:59:35.425Z,1287.00
2023-06-11T10:00:35.460Z,1287.00
2023-06-11T10:01:35.578Z,1290.00
2023-06-11T10:02:35.495Z,1277.00
2023-06-11T10:03:35.589Z,1290.00
2023-06-11T10:04:35.461Z,1289.00
2023-06-11T10:05:35.449Z,1291.00
2023-06-11T10:06:35.434Z,1273.00
2023-06-11T10:07:35.449Z,1280.00
2023-06-11T10:08:35.475Z,1280.00
2023-06-11T10:09:35.477Z,1291.00
2023-06-11T10:10:35.507Z,1289.00
2023-06-11T10:11:35.560Z,1295.00
2023-06-11T10:12:35.575Z,1291.00
2023-06-11T10:13:35.663Z,1289.00
2023-06-11T10:14:35.569Z,1281.00
2023-06-11T10:15:35.569Z,1286.00
2023-06-11T10:16:35.584Z,1282.00
2023-06-11T10:17:35.553Z,1276.00
2023-06-11T10:18:35.583Z,1274.00
2023-06-11T10:19:35.577Z,1277.00
2023-06-11T10:20:35.634Z,1290.00
2023-06-11T10:21:35.594Z,1274.00
2023-06-11T10:22:35.819Z,1277.00
2023-06-11T10:23:35.804Z,1287.00
2023-06-11T10:24:35.695Z,1272.00
2023-06-11T10:25:35.651Z,1281.00
2023-06-11T10:26:35.665Z,1269.00
2023-06-11T10:27:35.628Z,1259.00
2023-06-11T10:28:35.654Z,1273.00
2023-06-11T10:29:35.643Z,1267.00
2023-06-11T10:30:35.707Z,1267.00
2023-06-11T10:31:35.694Z,1246.00
2023-06-11T10:32:35.790Z,1264.00
2023-06-11T10:33:35.880Z,1252.00
2023-06-11T10:34:35.812Z,1257.00
2023-06-11T10:35:35.751Z,1244.00
2023-06-11T10:36:35.798Z,1265.00
2023-06-11T10:37:35.834Z,1244.00
2023-06-11T10:38:35.808Z,1253.00
2023-06-11T10:39:35.864Z,1254.00
2023-06-11T10:40:35.918Z,1245.00
2023-06-11T10:41:35.888Z,1241.00
2023-06-11T10:42:35.910Z,1247.00
2023-06-11T10:43:35.925Z,1262.00
2023-06-11T10:44:35.959Z,1250.00
2023-06-11T10:45:35.998Z,1247.00
2023-06-11T10:46:36.120Z,1247.00
2023-06-11T10:47:36.091Z,1241.00
2023-06-11T10:48:36.012Z,1246.00
2023-06-11T10:49:36.103Z,1250.00
2023-06-11T10:50:36.080Z,1241.00
2023-06-11T10:51:38.405Z,1234.00
2023-06-11T10:52:36.102Z,1235.00
2023-06-11T10:53:36.094Z,1238.00
2023-06-11T10:54:36.095Z,1234.00
2023-06-11T10:55:36.109Z,1234.00
2023-06-11T10:56:36.076Z,1242.00
2023-06-11T10:57:36.067Z,1245.00
2023-06-11T10:58:36.064Z,1241.00
2023-06-11T10:59:36.069Z,1218.00
2023-06-11T11:00:36.044Z,1243.00
2023-06-11T11:01:36.076Z,1242.00
2023-06-11T11:02:36.030Z,1227.00
2023-06-11T11:03:36.458Z,1220.00
2023-06-11T11:04:36.033Z,1230.00
2023-06-11T11:05:36.035Z,1229.00
2023-06-11T11:06:35.978Z,1220.00
2023-06-11T11:07:35.981Z,1225.00
2023-06-11T11:08:36.004Z,1226.00
2023-06-11T11:09:35.960Z,1226.00
2023-06-11T11:10:35.989Z,1236.00
2023-06-11T11:11:35.986Z,1217.00
2023-06-11T11:12:35.961Z,1220.00
2023-06-11T11:13:35.952Z,1217.00
2023-06-11T11:14:35.973Z,1220.00
2023-06-11T11:15:36.377Z,1203.00
2023-06-11T11:16:35.942Z,1210.00
2023-06-11T11:17:35.954Z,1211.00
2023-06-11T11:18:35.966Z,1216.00
2023-06-11T11:19:35.896Z,1210.00
2023-06-11T11:20:36.379Z,1207.00
2023-06-11T11:21:35.877Z,1204.00
2023-06-11T11:22:35.918Z,1223.00
2023-06-11T11:23:35.906Z,1194.00
2023-06-11T11:24:38.211Z,1198.00
2023-06-11T11:25:35.901Z,1199.00
2023-06-11T11:26:35.835Z,1200.00
2023-06-11T11:27:35.834Z,1203.00
2023-06-11T11:28:35.858Z,1207.00
2023-06-11T11:29:35.835Z,1192.00
2023-06-11T11:30:35.843Z,1200.00
2023-06-11T11:31:35.850Z,1206.00
2023-06-11T11:32:35.957Z,1202.00
2023-06-11T11:33:35.791Z,1197.00
2023-06-11T11:34:35.768Z,1202.00
2023-06-11T11:35:35.785Z,1195.00
2023-06-11T11:36:35.781Z,1192.00
2023-06-11T11:37:35.780Z,1191.00
2023-06-11T11:38:35.763Z,1193.00
2023-06-11T11:39:35.769Z,1195.00
2023-06-11T11:40:35.747Z,1183.00
2023-06-11T11:41:36.390Z,1191.00
2023-06-11T11:42:35.709Z,1185.00
2023-06-11T11:43:35.734Z,1188.00
2023-06-11T11:44:35.750Z,1193.00
2023-06-11T11:45:35.726Z,1188.00
2023-06-11T11:46:35.745Z,1192.00
2023-06-11T11:47:35.749Z,1168.00
2023-06-11T11:48:35.741Z,1173.00
2023-06-11T11:49:35.675Z,1165.00
2023-06-11T11:50:35.670Z,1172.00
2023-06-11T11:51:35.678Z,1155.00
2023-06-11T11:52:35.672Z,1179.00
2023-06-11T11:53:35.670Z,1178.00
2023-06-11T11:54:35.650Z,1161.00
2023-06-11T11:55:35.676Z,1176.00
2023-06-11T11:56:35.682Z,1166.00
2023-06-11T11:57:35.691Z,1167.00
2023-06-11T11:58:35.742Z,1152.00
2023-06-11T11:59:35.779Z,1169.00
2023-06-11T12:00:35.840Z,1161.00
2023-06-11T12:01:35.925Z,1159.00
2023-06-11T12:02:36.073Z,1162.00
2023-06-11T12:03:36.122Z,1151.00
2023-06-11T12:04:36.062Z,1153.00
2023-06-11T12:05:36.131Z,1161.00